Time;durP1;ratioP1;P1;durP2;ratioP2;P2;SDS_P1;SDS_P2;PMS_P1;PMS_P2;Temp;Humidity;BMP_temperature;BMP_pressure;BME280_temperature;BME280_humidity;BME280_pressure;Samples;Min_cycle;Max_cycle;Signal;HPM_P1;HPM_P2
2022/03/09 00:01:20;;;;;;;;;;;;;;;-2.28;74.90;97793.16;10291514;28;20396;-61
2022/03/09 00:06:18;;;;;;;;;;;;;;;-2.19;74.47;97782.59;10290426;28;19909;-61
2022/03/09 00:11:17;;;;;;;;;;;;;;;-2.06;74.70;97780.69;10290836;28;19944;-61
2022/03/09 00:16:16;;;;;;;;;;;;;;;-2.15;75.05;97784.47;10288004;28;19948;-61
2022/03/09 00:21:15;;;;;;;;;;;;;;;-2.12;75.03;97779.53;10290821;28;19925;-61
2022/03/09 00:26:14;;;;;;;;;;;;;;;-2.04;74.82;97777.38;10291132;28;19952;-61
2022/03/09 00:31:13;;;;;;;;;;;;;;;-2.15;75.41;97780.28;10290454;28;19910;-61
2022/03/09 00:36:12;;;;;;;;;;;;;;;-2.29;75.23;97777.03;10290557;28;19909;-61
2022/03/09 00:41:11;;;;;;;;;;;;;;;-2.21;75.72;97774.88;10290786;28;20397;-61
2022/03/09 00:46:09;;;;;;;;;;;;;;;-2.10;75.32;97775.38;10287093;28;19909;-61
2022/03/09 00:51:08;;;;;;;;;;;;;;;-2.38;75.85;97773.16;10290069;28;20047;-61
2022/03/09 00:56:07;;;;;;;;;;;;;;;-2.47;75.57;97771.03;10290502;28;19909;-61
2022/03/09 01:01:06;;;;;;;;;;;;;;;-2.52;75.67;97768.28;10290050;28;19910;-60
2022/03/09 01:06:04;;;;;;;;;;;;;;;-2.54;75.03;97764.78;10290127;28;19909;-61
2022/03/09 01:11:03;;;;;;;;;;;;;;;-2.60;74.66;97766.13;10291154;28;19913;-60
2022/03/09 01:16:03;;;;;;;;;;;;;;;-2.58;74.98;97762.88;10286730;28;19910;-61
2022/03/09 01:21:01;;;;;;;;;;;;;;;-2.55;74.70;97764.69;10296894;28;20261;-61
2022/03/09 01:26:00;;;;;;;;;;;;;;;-2.46;75.14;97756.66;10297172;28;20223;-61
2022/03/09 01:30:59;;;;;;;;;;;;;;;-2.40;75.15;97754.44;10296716;28;20010;-60
2022/03/09 01:35:58;;;;;;;;;;;;;;;-2.50;74.67;97753.97;10296607;28;19913;-61
2022/03/09 01:40:56;;;;;;;;;;;;;;;-2.47;74.89;97752.41;10296880;28;19910;-60
2022/03/09 01:45:55;;;;;;;;;;;;;;;-2.31;74.97;97752.34;10293081;28;19916;-61
2022/03/09 01:50:54;;;;;;;;;;;;;;;-2.23;74.73;97756.13;10296294;28;19917;-61
2022/03/09 01:55:53;;;;;;;;;;;;;;;-2.11;74.35;97758.38;10296588;28;19920;-61
2022/03/09 02:00:51;;;;;;;;;;;;;;;-2.21;75.22;97752.00;10295533;28;19997;-60
2022/03/09 02:05:50;;;;;;;;;;;;;;;-2.13;74.75;97747.28;10296433;28;20482;-61
2022/03/09 02:10:49;;;;;;;;;;;;;;;-2.10;74.04;97742.31;10294974;28;20358;-60
2022/03/09 02:15:49;;;;;;;;;;;;;;;-2.04;74.56;97741.78;10292440;28;19968;-60
2022/03/09 02:20:49;;;;;;;;;;;;;;;-2.04;74.43;97742.63;10294693;28;19964;-60
2022/03/09 02:25:48;;;;;;;;;;;;;;;-2.13;74.18;97747.28;10294669;28;19957;-60
2022/03/09 02:30:47;;;;;;;;;;;;;;;-2.22;74.38;97746.81;10293623;28;19917;-60
2022/03/09 02:35:46;;;;;;;;;;;;;;;-2.41;75.04;97748.47;10294773;28;19959;-60
2022/03/09 02:40:44;;;;;;;;;;;;;;;-2.65;75.60;97744.72;10293806;28;19913;-60
2022/03/09 02:45:43;;;;;;;;;;;;;;;-2.86;75.99;97742.81;10294257;28;20338;-60
2022/03/09 02:50:42;;;;;;;;;;;;;;;-2.95;76.39;97744.91;10291135;28;20020;-60
2022/03/09 02:55:41;;;;;;;;;;;;;;;-3.18;77.20;97756.38;10293372;28;19909;-60
2022/03/09 03:00:39;;;;;;;;;;;;;;;-3.12;76.93;97761.78;10293603;28;19913;-60
2022/03/09 03:05:38;;;;;;;;;;;;;;;-3.04;76.80;97763.06;10293659;28;19917;-60
2022/03/09 03:10:37;;;;;;;;;;;;;;;-3.13;76.99;97755.84;10292600;28;20028;-60
2022/03/09 03:15:35;;;;;;;;;;;;;;;-3.10;76.63;97765.28;10275974;28;19909;-60
2022/03/09 03:20:34;;;;;;;;;;;;;;;-3.13;76.20;97770.22;10289611;28;20028;-60
2022/03/09 03:25:33;;;;;;;;;;;;;;;-3.19;76.39;97764.81;10292350;28;19913;-60
2022/03/09 03:30:32;;;;;;;;;;;;;;;-3.23;76.49;97755.28;10293498;28;19913;-60
2022/03/09 03:35:31;;;;;;;;;;;;;;;-3.31;76.66;97769.25;10292147;28;19920;-59
2022/03/09 03:40:29;;;;;;;;;;;;;;;-3.41;76.63;97766.22;10291661;28;20339;-59
2022/03/09 03:45:28;;;;;;;;;;;;;;;-3.49;77.05;97767.44;10290376;28;19996;-59
2022/03/09 03:50:27;;;;;;;;;;;;;;;-3.57;77.23;97769.59;10288684;28;19993;-59
2022/03/09 03:55:26;;;;;;;;;;;;;;;-3.66;77.11;97770.75;10291959;28;19916;-59
2022/03/09 04:00:24;;;;;;;;;;;;;;;-3.72;77.06;97766.19;10292239;28;20260;-59
2022/03/09 04:05:23;;;;;;;;;;;;;;;-3.77;77.80;97763.41;10291665;28;19913;-59
2022/03/09 04:10:22;;;;;;;;;;;;;;;-3.82;78.03;97764.84;10291990;28;19913;-59
2022/03/09 04:15:21;;;;;;;;;;;;;;;-3.88;77.42;97768.69;10290757;28;20373;-59
2022/03/09 04:20:20;;;;;;;;;;;;;;;-3.98;77.99;97769.84;10287772;28;20379;-59
2022/03/09 04:25:18;;;;;;;;;;;;;;;-4.03;77.99;97779.72;10290891;28;20018;-59
2022/03/09 04:30:17;;;;;;;;;;;;;;;-4.04;78.68;97778.00;10290042;28;19956;-59
2022/03/09 04:35:16;;;;;;;;;;;;;;;-4.08;79.15;97768.47;10290564;28;20361;-59
2022/03/09 04:40:16;;;;;;;;;;;;;;;-4.06;79.20;97773.63;10290560;28;19906;-59
2022/03/09 04:45:15;;;;;;;;;;;;;;;-4.06;78.86;97769.41;10290225;28;19983;-59
2022/03/09 04:50:14;;;;;;;;;;;;;;;-4.03;78.11;97777.19;10287071;28;19967;-59
2022/03/09 04:55:12;;;;;;;;;;;;;;;-3.94;77.99;97775.97;10298377;28;20004;-59
2022/03/09 05:00:11;;;;;;;;;;;;;;;-3.87;78.65;97771.31;10297742;28;19945;-60
2022/03/09 05:05:10;;;;;;;;;;;;;;;-3.82;77.54;97767.38;10297723;28;19917;-59
2022/03/09 05:10:09;;;;;;;;;;;;;;;-3.84;78.06;97776.53;10297581;28;19921;-59
2022/03/09 05:15:08;;;;;;;;;;;;;;;-3.88;78.71;97774.66;10297383;28;19957;-59
2022/03/09 05:20:07;;;;;;;;;;;;;;;-3.85;79.72;97784.97;10278991;28;19956;-60
2022/03/09 05:25:06;;;;;;;;;;;;;;;-3.74;79.45;97787.19;10294098;28;20463;-60
2022/03/09 05:30:06;;;;;;;;;;;;;;;-3.59;78.91;97798.19;10296992;28;20451;-60
2022/03/09 05:35:05;;;;;;;;;;;;;;;-3.50;79.03;97801.22;10215441;28;20390;-60
2022/03/09 05:40:05;;;;;;;;;;;;;;;-4.54;78.98;97605.44;10042604;28;20388;-60
2022/03/09 05:48:31;;;;;;;111.95;55.17;;;;;;;-3.26;79.02;97799.13;10029939;27;20681;-60
2022/03/09 05:53:30;;;;;;;;;;;;;;;-3.15;79.18;97799.72;10306369;28;20128;-60
2022/03/09 05:58:28;;;;;;;105.75;49.83;;;;;;;-3.05;78.34;97809.56;10324987;28;20010;-60
2022/03/09 06:03:27;;;;;;;103.00;51.38;;;;;;;-3.01;78.53;97797.91;10320413;28;20042;-60
2022/03/09 06:08:26;;;;;;;100.57;50.03;;;;;;;-2.98;78.30;97804.00;10324532;28;20475;-60
2022/03/09 06:13:25;;;;;;;102.82;48.20;;;;;;;-3.14;77.65;97804.00;10325288;28;20048;-60
2022/03/09 06:18:24;;;;;;;88.10;44.25;;;;;;;-3.51;77.43;97756.34;10322223;28;20060;-60
2022/03/09 06:23:23;;;;;;;99.32;53.67;;;;;;;-3.73;77.62;97734.03;10324660;28;20113;-60
2022/03/09 06:28:22;;;;;;;128.75;55.15;;;;;;;-3.57;78.31;97766.19;10324434;28;20530;-61
2022/03/09 06:33:21;;;;;;;96.65;50.67;;;;;;;-3.48;78.50;97776.81;10324269;28;20093;-60
2022/03/09 06:38:20;;;;;;;97.68;50.00;;;;;;;-3.10;77.78;97815.19;10321279;28;20076;-60
2022/03/09 06:43:19;;;;;;;103.32;49.88;;;;;;;-3.08;77.46;97796.72;10320997;28;20033;-61
2022/03/09 06:48:18;;;;;;;98.80;51.78;;;;;;;-2.98;77.47;97820.91;10320267;28;20037;-60
2022/03/09 06:53:17;;;;;;;96.78;48.45;;;;;;;-3.06;77.02;97794.22;10320285;28;20511;-60
2022/03/09 06:58:16;;;;;;;98.70;50.85;;;;;;;-2.87;76.82;97822.34;10304931;28;20033;-60
2022/03/09 07:03:15;;;;;;;106.88;55.95;;;;;;;-2.72;76.69;97814.66;10295434;28;20029;-60
2022/03/09 07:08:14;;;;;;;;;;;;;;;-2.45;76.17;97814.28;10296412;28;20145;-60
2022/03/09 07:13:13;;;;;;;134.30;76.07;;;;;;;-2.09;76.25;97816.13;10296466;28;20402;-60
2022/03/09 07:18:12;;;;;;;112.90;61.50;;;;;;;-2.07;75.00;97796.75;10295792;28;20468;-59
2022/03/09 07:23:12;;;;;;;105.47;57.63;;;;;;;-1.85;74.52;97779.97;10295321;28;20491;-59
2022/03/09 07:28:11;;;;;;;90.47;49.35;;;;;;;-1.38;73.28;97801.69;10293758;28;20066;-59
2022/03/09 07:33:10;;;;;;;98.00;51.88;;;;;;;-1.28;71.88;97772.44;10295165;28;20070;-59
2022/03/09 07:38:10;;;;;;;90.88;49.72;;;;;;;-1.03;71.27;97795.66;10294980;28;20467;-59
2022/03/09 07:43:10;;;;;;;78.50;43.38;;;;;;;-0.75;70.02;97783.28;10295377;28;20443;-59
2022/03/09 07:48:09;;;;;;;87.97;45.40;;;;;;;-0.45;68.48;97788.84;10294090;28;20123;-59
2022/03/09 07:53:08;;;;;;;100.18;54.47;;;;;;;-0.64;68.67;97802.47;10294643;28;20026;-59
2022/03/09 07:58:07;;;;;;;;;;;;;;;-0.50;68.39;97790.31;10294344;28;20460;-60
2022/03/09 08:03:06;;;;;;;86.57;43.72;;;;;;;-0.27;68.01;97768.34;10293833;28;20363;-59
2022/03/09 08:08:05;;;;;;;82.82;46.47;;;;;;;-0.26;67.47;97764.97;10292632;28;20458;-59
2022/03/09 08:13:03;;;;;;;85.47;47.47;;;;;;;-0.05;67.24;97760.75;10293113;28;20037;-59
2022/03/09 08:18:04;;;;;;;69.25;37.58;;;;;;;0.24;66.08;97776.34;10293530;28;20033;-59
2022/03/09 08:23:02;;;;;;;85.18;46.80;;;;;;;0.12;65.36;97686.56;10292699;28;20088;-59
2022/03/09 08:28:02;;;;;;;70.47;38.15;;;;;;;0.87;63.81;97774.56;10291628;28;20038;-59
2022/03/09 08:33:01;;;;;;;62.00;35.83;;;;;;;0.66;62.80;97738.88;10291157;28;20135;-59
2022/03/09 08:37:59;;;;;;;62.83;36.55;;;;;;;0.72;61.55;97757.78;10286855;28;20463;-59
2022/03/09 08:42:58;;;;;;;64.03;35.65;;;;;;;0.67;60.92;97755.06;10292195;28;20034;-59
2022/03/09 08:47:57;;;;;;;61.10;36.50;;;;;;;0.82;61.03;97758.16;10292351;28;20200;-59
2022/03/09 08:52:57;;;;;;;74.97;43.10;;;;;;;1.01;59.14;97752.03;10292150;28;20034;-59
2022/03/09 08:57:56;;;;;;;77.28;44.00;;;;;;;0.94;59.70;97709.19;10290574;28;20084;-59
2022/03/09 09:02:55;;;;;;;93.03;47.08;;;;;;;1.08;58.97;97723.38;10291211;28;20072;-59
2022/03/09 09:07:54;;;;;;;57.05;33.95;;;;;;;1.17;58.25;97743.25;10291610;28;20065;-59
2022/03/09 09:12:57;;;;;;;44.95;27.88;;;;;;;0.91;56.33;97744.88;10291028;28;20026;-59
2022/03/09 09:17:58;;;;;;;40.42;23.85;;;;;;;0.90;54.34;97736.34;10291893;28;20471;-59
2022/03/09 09:22:58;;;;;;;45.55;25.25;;;;;;;1.10;54.61;97742.16;10291436;28;20065;-59
2022/03/09 09:27:57;;;;;;;42.75;24.25;;;;;;;1.01;54.82;97730.72;10290831;28;20072;-59
2022/03/09 09:32:57;;;;;;;41.75;24.40;;;;;;;0.97;54.22;97731.47;10288893;28;20077;-59
2022/03/09 09:37:56;;;;;;;43.20;25.08;;;;;;;0.88;53.41;97737.97;10290209;28;20072;-59
2022/03/09 09:42:55;;;;;;;40.17;23.70;;;;;;;0.76;53.38;97676.22;10290598;28;20070;-59
2022/03/09 09:47:54;;;;;;;36.03;21.38;;;;;;;0.77;51.20;97684.75;10290320;28;20050;-59
2022/03/09 09:52:53;;;;;;;37.47;23.35;;;;;;;1.30;51.46;97732.66;10290226;28;20137;-59
2022/03/09 09:57:54;;;;;;;35.38;20.55;;;;;;;1.57;50.57;97734.41;10290143;28;20057;-59
2022/03/09 10:02:53;;;;;;;36.22;21.88;;;;;;;1.49;49.92;97684.69;10290402;28;20492;-59
2022/03/09 10:08:05;;;;;;;35.40;20.80;;;;;;;1.80;48.72;97726.63;10290017;28;20377;-59
2022/03/09 10:13:13;;;;;;;30.58;18.38;;;;;;;1.65;47.92;97727.88;10288430;28;20081;-59
2022/03/09 10:18:16;;;;;;;26.63;16.35;;;;;;;1.99;48.86;97731.53;10289954;28;20065;-59
2022/03/09 10:23:17;;;;;;;31.90;21.25;;;;;;;2.31;47.23;97727.41;10287711;28;20077;-59
2022/03/09 10:28:16;;;;;;;88.45;55.00;;;;;;;2.47;47.18;97710.84;10289913;28;20065;-59
2022/03/09 10:33:19;;;;;;;28.60;17.88;;;;;;;2.90;47.98;97709.50;10293621;28;20073;-59
2022/03/09 10:38:19;;;;;;;23.88;15.45;;;;;;;3.08;46.50;97701.47;10297155;28;20065;-59
2022/03/09 10:43:21;;;;;;;27.67;16.02;;;;;;;3.30;46.09;97704.63;10296669;28;20065;-60
2022/03/09 10:48:20;;;;;;;27.38;16.73;;;;;;;3.52;45.81;97686.41;10296426;28;20089;-59
2022/03/09 10:53:19;;;;;;;24.30;15.77;;;;;;;3.64;44.59;97685.84;10296890;28;20026;-60
2022/03/09 10:58:20;;;;;;;23.20;14.63;;;;;;;3.71;43.08;97689.44;10296570;28;20033;-60
2022/03/09 11:03:23;;;;;;;26.23;15.60;;;;;;;4.04;43.81;97690.25;10295161;28;20144;-60
2022/03/09 11:08:43;;;;;;;24.27;14.55;;;;;;;3.49;43.73;97629.00;10296024;28;20522;-60
2022/03/09 11:13:42;;;;;;;;;;;;;;;3.83;44.29;97682.03;10296619;28;20089;-60
2022/03/09 11:18:42;;;;;;;34.50;20.70;;;;;;;3.90;43.45;97662.53;10295724;28;20062;-60
2022/03/09 11:23:41;;;;;;;30.42;18.45;;;;;;;4.19;45.87;97651.19;10295576;28;20068;-60
2022/03/09 11:28:42;;;;;;;29.08;21.35;;;;;;;4.13;44.22;97616.81;10295414;28;20037;-60
2022/03/09 11:33:41;;;;;;;22.98;15.05;;;;;;;4.72;43.55;97666.03;10295215;28;20073;-60
2022/03/09 11:38:40;;;;;;;24.60;16.85;;;;;;;5.00;41.73;97658.94;10295027;28;20092;-60
2022/03/09 11:43:39;;;;;;;24.45;15.82;;;;;;;5.10;40.78;97643.69;10294610;28;20069;-60
2022/03/09 11:49:08;;;;;;;20.83;14.80;;;;;;;3.61;41.42;97465.09;10294653;28;20491;-60
2022/03/09 11:54:07;;;;;;;25.48;17.60;;;;;;;3.96;42.52;97621.56;10289222;28;20069;-59
2022/03/09 11:59:24;;;;;;;25.35;17.70;;;;;;;3.65;46.46;97667.91;10294109;28;20033;-60
2022/03/09 12:04:51;;;;;;;28.98;19.73;;;;;;;3.77;46.74;97664.78;10293958;28;20074;-60
2022/03/09 12:09:57;;;;;;;27.95;20.55;;;;;;;3.77;45.58;97669.91;10294028;28;20072;-60
2022/03/09 12:15:05;;;;;;;22.55;15.52;;;;;;;3.91;45.19;97659.97;10307020;28;20092;-60
2022/03/09 12:20:23;;;;;;;25.63;16.13;;;;;;;3.61;45.45;97660.09;10334101;28;20791;-60
2022/03/09 12:25:47;;;;;;;22.23;14.60;;;;;;;2.76;46.85;97659.56;10333792;28;20065;-60
2022/03/09 12:30:47;;;;;;;37.83;25.55;;;;;;;2.62;47.31;97666.00;10333491;28;20065;-60
2022/03/09 12:35:47;;;;;;;28.70;17.63;;;;;;;3.21;46.16;97659.97;10333220;28;20384;-60
2022/03/09 12:40:46;;;;;;;61.30;36.28;;;;;;;3.55;45.73;97660.81;10333378;28;20068;-60
2022/03/09 12:45:55;;;;;;;116.97;51.88;;;;;;;3.76;47.66;97593.75;10332725;28;20087;-60
2022/03/09 12:51:03;;;;;;;58.78;30.73;;;;;;;4.18;43.86;97664.88;10332801;28;20069;-60
2022/03/09 12:56:19;;;;;;;119.13;57.38;;;;;;;3.89;44.40;97663.34;10319732;28;20131;-60
2022/03/09 13:01:18;;;;;;;51.42;39.85;;;;;;;3.22;45.45;97624.94;10291817;28;20073;-60
2022/03/09 13:06:24;;;;;;;19.02;12.32;;;;;;;2.48;50.09;97699.75;10292043;28;20034;-60
2022/03/09 13:11:29;;;;;;;17.70;10.98;;;;;;;1.54;53.76;97718.97;10291703;28;20073;-60
2022/03/09 13:16:28;;;;;;;17.55;10.95;;;;;;;1.12;55.01;97698.78;10290220;28;20092;-60
2022/03/09 13:21:29;;;;;;;19.27;11.40;;;;;;;0.60;57.86;97682.44;10291490;28;20048;-60
2022/03/09 13:26:43;;;;;;;15.50;10.23;;;;;;;0.92;58.01;97730.41;10291018;28;20092;-60
2022/03/09 13:31:49;;;;;;;19.55;11.68;;;;;;;0.47;63.75;97736.41;10291043;28;20076;-60
2022/03/09 13:37:00;;;;;;;18.23;11.32;;;;;;;0.05;63.74;97665.03;10291477;28;20061;-60
2022/03/09 13:42:00;;;;;;;21.38;14.20;;;;;;;0.63;62.89;97736.16;10291457;28;20065;-60
2022/03/09 13:47:17;;;;;;;42.47;25.80;;;;;;;0.74;62.32;97726.38;10291104;28;20496;-60
2022/03/09 13:52:24;;;;;;;40.72;22.33;;;;;;;0.71;59.96;97695.63;10290705;28;20452;-60
2022/03/09 13:58:00;;;;;;;30.15;16.90;;;;;;;1.25;58.41;97720.53;10290714;28;20062;-60
2022/03/09 14:03:11;;;;;;;25.15;16.25;;;;;;;1.56;57.01;97716.47;10290321;28;20081;-59
2022/03/09 14:08:23;;;;;;;25.67;15.75;;;;;;;1.67;55.05;97664.84;10294555;28;20066;-60
2022/03/09 14:13:22;;;;;;;33.25;23.08;;;;;;;2.35;53.73;97708.78;10298306;28;20516;-60
2022/03/09 14:18:21;;;;;;;26.63;17.05;;;;;;;2.22;52.69;97644.34;10296691;28;20587;-60
2022/03/09 14:23:20;;;;;;;25.88;13.60;;;;;;;2.68;50.42;97686.69;10298059;28;20403;-60
2022/03/09 14:28:19;;;;;;;25.55;13.80;;;;;;;2.05;49.43;97588.41;10297959;28;20480;-60
2022/03/09 14:33:18;;;;;;;50.03;26.52;;;;;;;2.37;49.39;97698.56;10297503;28;20076;-60
2022/03/09 14:38:17;;;;;;;52.78;27.92;;;;;;;2.41;50.19;97708.09;10297755;28;20032;-60
2022/03/09 14:43:16;;;;;;;29.40;17.63;;;;;;;2.68;50.35;97705.47;10297482;28;20491;-60
2022/03/09 14:48:17;;;;;;;25.23;16.35;;;;;;;2.49;51.21;97677.56;10296860;28;20487;-60
2022/03/09 14:53:16;;;;;;;23.30;14.27;;;;;;;1.83;53.39;97655.09;10296540;28;20107;-59
2022/03/09 14:58:15;;;;;;;21.58;13.88;;;;;;;1.25;60.34;97749.50;10297013;28;20026;-60
2022/03/09 15:03:14;;;;;;;25.80;16.05;;;;;;;0.71;64.94;97736.47;10296596;28;20077;-60
2022/03/09 15:08:13;;;;;;;;;;;;;;;0.28;70.11;97755.25;10296755;28;20065;-60
2022/03/09 15:13:12;;;;;;;33.80;21.38;;;;;;;0.11;71.71;97753.72;10297095;28;19963;-60
2022/03/09 15:18:11;;;;;;;36.00;22.83;;;;;;;-0.01;73.24;97751.56;10295852;28;20092;-59
2022/03/09 15:23:10;;;;;;;29.90;18.48;;;;;;;-0.23;74.63;97739.59;10294319;28;20125;-59
2022/03/09 15:28:10;;;;;;;27.67;18.13;;;;;;;-0.15;74.62;97768.84;10295412;28;20037;-59
2022/03/09 15:33:09;;;;;;;34.00;21.85;;;;;;;-0.06;74.39;97759.03;10295323;28;20093;-59
2022/03/09 15:38:08;;;;;;;37.03;24.33;;;;;;;-0.28;74.39;97726.66;10293859;28;20073;-59
2022/03/09 15:43:07;;;;;;;33.08;21.00;;;;;;;-0.04;74.11;97777.81;10295007;28;20511;-60
2022/03/09 15:48:10;;;;;;;23.85;15.77;;;;;;;-0.21;74.38;97783.88;10293277;28;20046;-59
2022/03/09 15:53:09;;;;;;;32.03;19.67;;;;;;;-0.24;74.20;97789.72;10294770;28;20507;-59
2022/03/09 15:58:08;;;;;;;31.10;20.85;;;;;;;-0.33;74.16;97762.97;10292857;28;20044;-59
2022/03/09 16:03:07;;;;;;;38.65;22.95;;;;;;;-0.24;73.89;97764.22;10294775;28;20073;-59
2022/03/09 16:08:06;;;;;;;35.50;20.50;;;;;;;-0.13;73.94;97791.84;10293958;28;20064;-60
2022/03/09 16:13:05;;;;;;;30.67;20.17;;;;;;;-0.35;73.11;97775.66;10293591;28;20062;-60
2022/03/09 16:18:04;;;;;;;26.65;16.02;;;;;;;-0.26;73.36;97805.78;10293511;28;20040;-60
2022/03/09 16:23:04;;;;;;;37.85;23.08;;;;;;;-0.19;73.27;97823.06;10294050;28;20176;-60
2022/03/09 16:28:03;;;;;;;34.05;20.52;;;;;;;-0.20;72.77;97821.34;10292942;28;20065;-60
2022/03/09 16:33:02;;;;;;;38.55;23.05;;;;;;;-0.01;72.48;97841.72;10291741;28;20073;-60
2022/03/09 16:38:03;;;;;;;50.28;29.98;;;;;;;-0.12;72.48;97847.16;10292702;28;20476;-60
2022/03/09 16:43:02;;;;;;;26.50;15.15;;;;;;;-0.59;76.40;97877.44;10292751;28;20065;-60
2022/03/09 16:48:01;;;;;;;33.08;19.35;;;;;;;-0.81;78.10;97875.63;10292255;28;20046;-60
2022/03/09 16:53:00;;;;;;;36.22;19.92;;;;;;;-0.89;79.01;97877.78;10291853;28;20073;-60
2022/03/09 16:57:59;;;;;;;;;;;;;;;-0.86;78.81;97880.50;10292866;28;20065;-60
2022/03/09 17:02:58;;;;;;;58.05;35.20;;;;;;;-1.06;79.96;97873.63;10291996;28;19960;-60
2022/03/09 17:07:57;;;;;;;38.03;24.42;;;;;;;-1.07;80.91;97887.13;10290112;28;20132;-60
2022/03/09 17:12:56;;;;;;;61.05;35.65;;;;;;;-1.06;80.45;97896.53;10291306;28;20488;-60
2022/03/09 17:17:55;;;;;;;59.00;35.80;;;;;;;-1.19;81.22;97876.38;10290033;28;20044;-60
2022/03/09 17:22:54;;;;;;;94.57;44.72;;;;;;;-1.04;81.58;97902.56;10290625;28;20510;-59
2022/03/09 17:27:53;;;;;;;38.30;21.40;;;;;;;-1.02;81.16;97906.06;10288413;28;20044;-59
2022/03/09 17:32:52;;;;;;;35.47;21.95;;;;;;;-1.10;81.29;97892.09;10291514;28;20062;-61
2022/03/09 17:37:51;;;;;;;92.68;41.88;;;;;;;-1.11;81.68;97903.97;10288156;28;20075;-59
2022/03/09 17:42:50;;;;;;;89.20;46.22;;;;;;;-1.01;81.50;97915.44;10287054;28;20127;-59
2022/03/09 17:47:49;;;;;;;147.18;68.13;;;;;;;-1.17;82.00;97885.84;10290506;28;20073;-59
2022/03/09 17:52:49;;;;;;;97.25;49.10;;;;;;;-1.04;83.62;97923.81;10290740;28;20408;-59
2022/03/09 17:57:49;;;;;;;125.63;61.47;;;;;;;-1.41;83.65;97870.28;10288822;28;20070;-59
2022/03/09 18:02:48;;;;;;;148.07;81.82;;;;;;;-1.09;84.22;97930.38;10289192;28;20076;-59
2022/03/09 18:07:47;;;;;;;47.80;30.02;;;;;;;-1.32;83.98;97919.09;10290481;28;20070;-59
2022/03/09 18:12:46;;;;;;;46.65;31.00;;;;;;;-1.58;86.61;97942.41;10289670;28;20070;-60
2022/03/09 18:17:46;;;;;;;38.67;22.55;;;;;;;-1.78;87.60;97946.50;10289578;28;20511;-59
2022/03/09 18:22:45;;;;;;;66.47;39.25;;;;;;;-1.88;87.51;97947.72;10289724;28;20068;-59
2022/03/09 18:27:44;;;;;;;42.03;25.65;;;;;;;-2.31;89.17;97902.31;10287767;28;20428;-59
2022/03/09 18:32:44;;;;;;;53.80;28.92;;;;;;;-1.96;89.17;97951.50;10288189;28;20092;-59
2022/03/09 18:37:43;;;;;;;66.50;38.15;;;;;;;-1.76;88.05;97943.22;10289728;28;20072;-59
2022/03/09 18:42:43;;;;;;;129.30;60.60;;;;;;;-1.64;87.77;97936.19;10289553;28;20034;-59
2022/03/09 18:47:43;;;;;;;104.47;53.88;;;;;;;-1.67;86.98;97908.06;10289500;28;20097;-60
2022/03/09 18:52:42;;;;;;;52.55;29.88;;;;;;;-1.30;87.70;97954.81;10291129;28;20076;-60
2022/03/09 18:57:41;;;;;;;41.78;23.95;;;;;;;-1.19;87.42;97958.72;10296655;28;20077;-60
2022/03/09 19:02:41;;;;;;;49.20;26.85;;;;;;;-1.22;86.67;97953.50;10294673;28;20070;-60
2022/03/09 19:07:40;;;;;;;;;;;;;;;-1.23;87.04;97967.03;10295762;28;20081;-60
2022/03/09 19:12:39;;;;;;;182.82;64.70;;;;;;;-1.34;87.75;97941.03;10295544;28;19913;-60
2022/03/09 19:17:38;;;;;;;338.58;130.13;;;;;;;-1.58;87.42;97922.06;10295761;28;20096;-60
2022/03/09 19:22:37;;;;;;;229.85;87.75;;;;;;;-1.19;87.78;97973.13;10292716;28;20077;-60
2022/03/09 19:27:37;;;;;;;296.30;125.53;;;;;;;-1.08;87.10;97972.00;10293994;28;20128;-60
2022/03/09 19:32:38;;;;;;;191.43;86.63;;;;;;;-0.98;87.48;97980.94;10295234;28;20065;-60
2022/03/09 19:37:37;;;;;;;374.45;167.88;;;;;;;-1.20;87.42;97951.91;10295123;28;20072;-60
2022/03/09 19:42:37;;;;;;;124.60;61.08;;;;;;;-1.21;87.38;97955.25;10294150;28;20072;-61
2022/03/09 19:47:36;;;;;;;117.13;59.05;;;;;;;-1.05;87.47;97967.94;10295249;28;20096;-60
2022/03/09 19:52:36;;;;;;;;;;;;;;;-0.95;87.23;97981.97;10289851;28;20457;-61
2022/03/09 19:57:36;;;;;;;59.85;30.23;;;;;;;-0.96;87.27;97984.44;10294256;28;19949;-60
2022/03/09 20:02:36;;;;;;;28.23;16.85;;;;;;;-0.93;87.10;97977.81;10293888;28;20065;-62
2022/03/09 20:07:36;;;;;;;27.58;16.08;;;;;;;-1.14;86.52;97985.31;10293733;28;20502;-59
2022/03/09 20:12:36;;;;;;;37.25;21.52;;;;;;;-1.84;87.47;97936.91;10293680;28;20072;-61
2022/03/09 20:17:35;;;;;;;43.47;24.63;;;;;;;-2.01;87.88;97938.56;10293152;28;20459;-61
2022/03/09 20:22:34;;;;;;;28.27;17.00;;;;;;;-1.95;87.85;97959.22;10292896;28;20092;-60
2022/03/09 20:27:33;;;;;;;25.88;15.15;;;;;;;-2.30;89.00;97917.63;10292696;28;20069;-60
2022/03/09 20:32:32;;;;;;;;;;;;;;;-1.87;89.27;98000.31;10293141;28;20073;-60
2022/03/09 20:37:33;;;;;;;45.17;26.77;;;;;;;-2.43;88.83;97911.81;10292564;28;19968;-60
2022/03/09 20:42:32;;;;;;;70.43;40.40;;;;;;;-1.87;88.96;98001.22;10292190;28;20590;-60
2022/03/09 20:47:31;;;;;;;45.08;24.48;;;;;;;-1.89;89.62;98004.44;10292435;28;20546;-60
2022/03/09 20:52:32;;;;;;;58.85;36.78;;;;;;;-1.90;89.62;97995.06;10291694;28;20507;-61
2022/03/09 20:57:32;;;;;;;43.63;23.98;;;;;;;-1.89;89.42;98001.91;10291779;28;20440;-60
2022/03/09 21:02:31;;;;;;;41.30;23.08;;;;;;;-2.18;88.71;97985.13;10292336;28;20076;-60
2022/03/09 21:07:29;;;;;;;45.72;23.90;;;;;;;-2.40;88.96;97945.03;10291366;28;20045;-60
2022/03/09 21:12:30;;;;;;;40.92;24.58;;;;;;;-2.54;88.43;97932.47;10290827;28;20121;-60
2022/03/09 21:17:29;;;;;;;50.17;27.15;;;;;;;-2.35;88.25;97989.34;10289908;28;20076;-60
2022/03/09 21:22:27;;;;;;;48.10;25.58;;;;;;;-2.18;88.24;97992.78;10291197;28;20071;-60
2022/03/09 21:27:26;;;;;;;34.30;19.75;;;;;;;-2.12;88.17;97991.44;10289136;28;20037;-60
2022/03/09 21:32:25;;;;;;;37.47;20.60;;;;;;;-2.04;88.07;97991.81;10291636;28;20499;-61
2022/03/09 21:37:26;;;;;;;36.50;21.52;;;;;;;-1.89;86.83;97989.19;10290269;28;20026;-60
2022/03/09 21:42:25;;;;;;;51.83;28.30;;;;;;;-1.83;86.56;97981.00;10290492;28;20072;-60
2022/03/09 21:47:24;;;;;;;65.93;33.67;;;;;;;-1.67;86.95;97988.63;10290812;28;20535;-60
2022/03/09 21:52:23;;;;;;;219.10;89.63;;;;;;;-1.66;86.76;97997.97;10290256;28;20034;-60
2022/03/09 21:57:22;;;;;;;62.40;30.55;;;;;;;-1.76;87.03;97958.50;10288948;28;20037;-60
2022/03/09 22:02:21;;;;;;;57.20;28.92;;;;;;;-1.41;87.18;97996.69;10290280;28;20057;-60
2022/03/09 22:07:20;;;;;;;60.72;28.65;;;;;;;-1.47;86.85;97977.78;10289737;28;20025;-61
2022/03/09 22:12:19;;;;;;;45.20;24.05;;;;;;;-1.23;86.87;97998.47;10290062;28;20041;-60
2022/03/09 22:17:18;;;;;;;54.22;28.90;;;;;;;-1.66;86.44;97907.28;10290295;28;20480;-60
2022/03/09 22:22:17;;;;;;;38.08;22.02;;;;;;;-1.67;85.82;97933.50;10290530;28;20071;-60
2022/03/09 22:27:16;;;;;;;38.60;19.85;;;;;;;-1.66;85.50;97986.16;10290553;28;20432;-60
2022/03/09 22:32:15;;;;;;;36.08;20.63;;;;;;;-1.99;85.75;97990.38;10297863;28;20069;-60
2022/03/09 22:37:14;;;;;;;55.75;30.73;;;;;;;-2.19;85.69;97980.88;10296985;28;20109;-60
2022/03/09 22:42:13;;;;;;;36.10;18.52;;;;;;;-2.39;86.63;97988.28;10297175;28;20030;-61
2022/03/09 22:47:12;;;;;;;;;;;;;;;-2.45;87.02;97987.09;10297647;28;20085;-60
2022/03/09 22:52:11;;;;;;;34.83;18.60;;;;;;;-2.62;88.01;97999.75;10296290;28;19913;-60
2022/03/09 22:57:11;;;;;;;36.85;20.20;;;;;;;-2.55;87.63;97995.88;10296684;28;20144;-60
2022/03/09 23:02:10;;;;;;;38.22;20.60;;;;;;;-2.95;88.14;97953.94;10296802;28;20084;-60
2022/03/09 23:07:09;;;;;;;34.03;18.23;;;;;;;-2.72;88.65;97993.31;10295157;28;20374;-60
2022/03/09 23:12:08;;;;;;;44.40;26.50;;;;;;;-2.88;88.27;97956.84;10296156;28;20124;-60
2022/03/09 23:17:06;;;;;;;44.97;24.77;;;;;;;-2.87;88.03;97949.31;10294509;28;20115;-60
2022/03/09 23:22:05;;;;;;;43.22;23.55;;;;;;;-2.60;87.58;97993.09;10291848;28;20462;-60
2022/03/09 23:27:05;;;;;;;75.43;41.75;;;;;;;-2.52;87.38;97994.41;10292365;28;20417;-60
2022/03/09 23:32:04;;;;;;;53.15;30.95;;;;;;;-2.47;86.97;97997.19;10293119;28;20068;-60
2022/03/09 23:37:03;;;;;;;;;;;;;;;-2.51;87.19;97998.69;10295568;28;20061;-60